ARG1838 SABE-SAWC
Flight info
| Callsign | ARG1838 |
|---|---|
| Flight time | 2h 49m |
| Altitude | 36000 |
| Route | GBE UT694 IREMO UP664 CRV UW48 BOKUK |
| Aircraft | B738/M-SDE2E3FGHIRWXY/LB1 |
Departure
| Time | 2026-05-06 15:06 |
|---|---|
| Airport | Aeroparque Jorge Newbery (SABE) |
Arrival
| Time | 2026-05-06 17:55 |
|---|---|
| Airport | El Calafate - Commander Armando Tola International Airport (SAWC) |
| Time | Latitude | Longitude | Altitude | Speed | Heading |
|---|---|---|---|---|---|
| 2026-05-06 14:16 | -34.55798 | -58.41250 | 25 ft | 0 kts | 36° |
| 2026-05-06 14:27 | -34.55799 | -58.41250 | 24 ft | 0 kts | 36° |
| 2026-05-06 14:41 | -34.55799 | -58.41251 | 52 ft | 0 kts | 36° |
| 2026-05-06 14:56 | -34.55800 | -58.41251 | 24 ft | 1 kts | 36° |
| 2026-05-06 14:56 | -34.55819 | -58.41268 | 29 ft | 4 kts | 26° |
| 2026-05-06 14:56 | -34.55838 | -58.41274 | 28 ft | 4 kts | 314° |
| 2026-05-06 14:56 | -34.55851 | -58.41251 | 28 ft | 4 kts | 303° |
| 2026-05-06 14:57 | -34.55863 | -58.41229 | 28 ft | 0 kts | 306° |
| 2026-05-06 14:59 | -34.55864 | -58.41229 | 28 ft | 0 kts | 306° |
| 2026-05-06 15:01 | -34.55859 | -58.41237 | 26 ft | 3 kts | 300° |
| 2026-05-06 15:01 | -34.55860 | -58.41269 | 24 ft | 5 kts | 250° |
| 2026-05-06 15:01 | -34.55898 | -58.41302 | 24 ft | 8 kts | 195° |
| 2026-05-06 15:01 | -34.55948 | -58.41261 | 25 ft | 10 kts | 126° |
| 2026-05-06 15:02 | -34.55996 | -58.41185 | 24 ft | 12 kts | 127° |
| 2026-05-06 15:02 | -34.56035 | -58.41083 | 24 ft | 14 kts | 104° |
| 2026-05-06 15:02 | -34.56062 | -58.40968 | 26 ft | 15 kts | 133° |
| 2026-05-06 15:02 | -34.56141 | -58.40878 | 24 ft | 16 kts | 133° |
| 2026-05-06 15:03 | -34.56209 | -58.40762 | 25 ft | 17 kts | 123° |
| 2026-05-06 15:03 | -34.56275 | -58.40644 | 28 ft | 17 kts | 124° |
| 2026-05-06 15:03 | -34.56349 | -58.40540 | 28 ft | 17 kts | 137° |
| 2026-05-06 15:03 | -34.56437 | -58.40446 | 26 ft | 17 kts | 137° |
| 2026-05-06 15:04 | -34.56504 | -58.40384 | 24 ft | 10 kts | 164° |
| 2026-05-06 15:04 | -34.56564 | -58.40421 | 28 ft | 11 kts | 247° |
| 2026-05-06 15:04 | -34.56525 | -58.40502 | 27 ft | 12 kts | 304° |
| 2026-05-06 15:04 | -34.56513 | -58.40523 | 26 ft | 7 kts | 303° |
| 2026-05-06 15:05 | -34.56363 | -58.40791 | 25 ft | 70 kts | 304° |
| 2026-05-06 15:05 | -34.55979 | -58.41482 | 24 ft | 125 kts | 304° |
| 2026-05-06 15:05 | -34.55407 | -58.42498 | 36 ft | 168 kts | 304° |
| 2026-05-06 15:05 | -34.54742 | -58.43666 | 512 ft | 172 kts | 308° |
| 2026-05-06 15:06 | -34.54091 | -58.44884 | 1065 ft | 170 kts | 313° |
| 2026-05-06 15:06 | -34.53162 | -58.45568 | 1810 ft | 155 kts | 354° |
| 2026-05-06 15:06 | -34.52005 | -58.45636 | 2152 ft | 182 kts | 7° |
| 2026-05-06 15:06 | -34.50794 | -58.44947 | 2346 ft | 211 kts | 38° |
| 2026-05-06 15:07 | -34.49903 | -58.43417 | 2620 ft | 240 kts | 62° |
| 2026-05-06 15:07 | -34.49711 | -58.41276 | 2918 ft | 273 kts | 94° |
| 2026-05-06 15:07 | -34.50177 | -58.38978 | 3525 ft | 286 kts | 102° |
| 2026-05-06 15:07 | -34.50747 | -58.36673 | 4368 ft | 285 kts | 102° |
| 2026-05-06 15:08 | -34.51314 | -58.34364 | 5090 ft | 288 kts | 102° |
| 2026-05-06 15:08 | -34.51875 | -58.32011 | 5782 ft | 292 kts | 101° |
| 2026-05-06 15:08 | -34.52431 | -58.29641 | 6511 ft | 293 kts | 101° |
| 2026-05-06 15:08 | -34.52988 | -58.27246 | 7191 ft | 297 kts | 102° |
| 2026-05-06 15:09 | -34.53870 | -58.24944 | 7803 ft | 308 kts | 123° |
| 2026-05-06 15:09 | -34.55262 | -58.22960 | 8547 ft | 312 kts | 135° |
| 2026-05-06 15:09 | -34.57016 | -58.21361 | 9170 ft | 318 kts | 144° |
| 2026-05-06 15:09 | -34.58904 | -58.19924 | 9821 ft | 322 kts | 147° |
| 2026-05-06 15:10 | -34.60839 | -58.18502 | 10306 ft | 331 kts | 147° |
| 2026-05-06 15:10 | -34.62876 | -58.16992 | 10421 ft | 354 kts | 147° |
| 2026-05-06 15:10 | -34.66617 | -58.14154 | 11378 ft | 362 kts | 147° |
| 2026-05-06 15:10 | -34.69269 | -58.12105 | 12112 ft | 368 kts | 148° |
| 2026-05-06 15:11 | -34.71443 | -58.10411 | 12647 ft | 374 kts | 148° |
| 2026-05-06 15:11 | -34.73643 | -58.08689 | 13277 ft | 378 kts | 148° |
| 2026-05-06 15:11 | -34.75834 | -58.06970 | 13886 ft | 381 kts | 149° |
| 2026-05-06 15:11 | -34.78079 | -58.05207 | 14429 ft | 385 kts | 149° |
| 2026-05-06 15:12 | -34.80349 | -58.03423 | 15013 ft | 389 kts | 150° |
| 2026-05-06 15:12 | -34.82631 | -58.01628 | 15615 ft | 393 kts | 150° |
| 2026-05-06 15:12 | -34.84944 | -57.99807 | 16130 ft | 399 kts | 150° |
| 2026-05-06 15:12 | -34.87294 | -57.97956 | 16646 ft | 404 kts | 150° |
| 2026-05-06 15:13 | -34.89665 | -57.96087 | 17283 ft | 406 kts | 151° |
| 2026-05-06 15:13 | -34.92041 | -57.94213 | 17914 ft | 409 kts | 152° |
| 2026-05-06 15:13 | -34.94493 | -57.92441 | 18344 ft | 411 kts | 163° |
| 2026-05-06 15:13 | -34.97215 | -57.91703 | 18802 ft | 395 kts | 186° |
| 2026-05-06 15:14 | -34.99882 | -57.92019 | 19506 ft | 378 kts | 201° |
| 2026-05-06 15:14 | -35.02300 | -57.93118 | 20029 ft | 367 kts | 217° |
| 2026-05-06 15:14 | -35.04509 | -57.94672 | 20582 ft | 367 kts | 219° |
| 2026-05-06 15:14 | -35.06704 | -57.96293 | 21063 ft | 370 kts | 219° |
| 2026-05-06 15:15 | -35.08883 | -57.97918 | 21542 ft | 373 kts | 219° |
| 2026-05-06 15:15 | -35.11105 | -57.99569 | 22099 ft | 374 kts | 219° |
| 2026-05-06 15:15 | -35.13339 | -58.01216 | 22654 ft | 376 kts | 219° |
| 2026-05-06 15:15 | -35.15590 | -58.02868 | 23147 ft | 378 kts | 219° |
| 2026-05-06 15:16 | -35.17858 | -58.04527 | 23583 ft | 381 kts | 219° |
| 2026-05-06 15:16 | -35.20143 | -58.06193 | 23993 ft | 383 kts | 219° |
| 2026-05-06 15:16 | -35.22439 | -58.07865 | 24447 ft | 384 kts | 219° |
| 2026-05-06 15:16 | -35.24737 | -58.09538 | 24883 ft | 385 kts | 219° |
| 2026-05-06 15:17 | -35.27050 | -58.11223 | 25273 ft | 388 kts | 219° |
| 2026-05-06 15:17 | -35.29373 | -58.12917 | 25660 ft | 390 kts | 218° |
| 2026-05-06 15:17 | -35.31728 | -58.14639 | 25827 ft | 399 kts | 218° |
| 2026-05-06 15:17 | -35.34134 | -58.16401 | 26079 ft | 404 kts | 218° |
| 2026-05-06 15:18 | -35.36539 | -58.18155 | 26630 ft | 401 kts | 218° |
| 2026-05-06 15:18 | -35.38938 | -58.19903 | 27111 ft | 400 kts | 218° |
| 2026-05-06 15:18 | -35.41340 | -58.21660 | 27437 ft | 404 kts | 219° |
| 2026-05-06 15:18 | -35.43757 | -58.23430 | 27802 ft | 405 kts | 219° |
| 2026-05-06 15:19 | -35.46181 | -58.25207 | 28187 ft | 406 kts | 219° |
| 2026-05-06 15:19 | -35.48611 | -58.26989 | 28540 ft | 408 kts | 219° |
| 2026-05-06 15:19 | -35.51058 | -58.28785 | 28868 ft | 410 kts | 219° |
| 2026-05-06 15:19 | -35.53513 | -58.30589 | 29195 ft | 412 kts | 219° |
| 2026-05-06 15:20 | -35.55980 | -58.32403 | 29546 ft | 414 kts | 219° |
| 2026-05-06 15:20 | -35.58462 | -58.34230 | 29686 ft | 421 kts | 218° |
| 2026-05-06 15:20 | -35.61004 | -58.36105 | 29765 ft | 428 kts | 218° |
| 2026-05-06 15:20 | -35.63556 | -58.37984 | 30107 ft | 428 kts | 218° |
| 2026-05-06 15:21 | -35.66111 | -58.39862 | 30472 ft | 427 kts | 218° |
| 2026-05-06 15:21 | -35.68623 | -58.41713 | 30745 ft | 428 kts | 218° |
| 2026-05-06 15:21 | -35.71183 | -58.43604 | 30941 ft | 431 kts | 218° |
| 2026-05-06 15:21 | -35.73764 | -58.45512 | 31147 ft | 433 kts | 218° |
| 2026-05-06 15:22 | -35.76345 | -58.47428 | 31398 ft | 433 kts | 218° |
| 2026-05-06 15:22 | -35.78914 | -58.49379 | 31680 ft | 433 kts | 219° |
| 2026-05-06 15:22 | -35.81473 | -58.51346 | 31953 ft | 433 kts | 219° |
| 2026-05-06 15:22 | -35.84029 | -58.53320 | 32224 ft | 433 kts | 220° |
| 2026-05-06 15:23 | -35.86589 | -58.55301 | 32346 ft | 438 kts | 220° |
| 2026-05-06 15:23 | -35.91791 | -58.59325 | 32710 ft | 441 kts | 220° |
| 2026-05-06 15:23 | -35.94385 | -58.61321 | 33203 ft | 436 kts | 220° |
| 2026-05-06 15:24 | -35.96948 | -58.63291 | 33641 ft | 432 kts | 220° |
| 2026-05-06 15:24 | -35.99499 | -58.65259 | 33878 ft | 433 kts | 220° |
| 2026-05-06 15:24 | -36.02059 | -58.67238 | 34008 ft | 435 kts | 220° |
| 2026-05-06 15:24 | -36.04596 | -58.69202 | 34203 ft | 436 kts | 220° |
| 2026-05-06 15:25 | -36.07156 | -58.71183 | 34524 ft | 433 kts | 220° |
| 2026-05-06 15:25 | -36.09698 | -58.73147 | 34899 ft | 430 kts | 221° |
| 2026-05-06 15:25 | -36.12225 | -58.75103 | 35241 ft | 428 kts | 222° |
| 2026-05-06 15:25 | -36.14737 | -58.77048 | 35679 ft | 423 kts | 222° |
| 2026-05-06 15:26 | -36.17221 | -58.78973 | 35908 ft | 423 kts | 222° |
| 2026-05-06 15:26 | -36.22235 | -58.82878 | 35896 ft | 425 kts | 222° |
| 2026-05-06 15:27 | -36.27238 | -58.86770 | 35895 ft | 422 kts | 222° |
| 2026-05-06 15:27 | -36.32211 | -58.90645 | 35890 ft | 420 kts | 222° |
| 2026-05-06 15:28 | -36.37156 | -58.94504 | 35893 ft | 419 kts | 222° |
| 2026-05-06 15:28 | -36.42091 | -58.98365 | 35867 ft | 420 kts | 221° |
| 2026-05-06 15:29 | -36.47020 | -59.02222 | 35878 ft | 418 kts | 222° |
| 2026-05-06 15:29 | -36.51925 | -59.06067 | 35884 ft | 415 kts | 221° |
| 2026-05-06 15:30 | -36.56770 | -59.09871 | 35893 ft | 413 kts | 221° |
| 2026-05-06 15:30 | -36.61631 | -59.13694 | 35897 ft | 412 kts | 222° |
| 2026-05-06 15:31 | -36.66469 | -59.17506 | 35916 ft | 412 kts | 222° |
| 2026-05-06 15:31 | -36.71319 | -59.21334 | 35889 ft | 413 kts | 222° |
| 2026-05-06 15:32 | -36.78600 | -59.27088 | 35906 ft | 413 kts | 222° |
| 2026-05-06 15:32 | -36.83463 | -59.30939 | 35900 ft | 414 kts | 222° |
| 2026-05-06 15:33 | -36.88310 | -59.34784 | 35882 ft | 416 kts | 222° |
| 2026-05-06 15:33 | -36.93195 | -59.38663 | 35876 ft | 417 kts | 222° |
| 2026-05-06 15:34 | -36.98085 | -59.42553 | 35885 ft | 417 kts | 222° |
| 2026-05-06 15:34 | -37.02153 | -59.45793 | 35902 ft | 416 kts | 222° |
| 2026-05-06 15:35 | -37.07045 | -59.49696 | 35885 ft | 418 kts | 222° |
| 2026-05-06 15:35 | -37.11942 | -59.53609 | 35894 ft | 417 kts | 222° |
| 2026-05-06 15:36 | -37.16838 | -59.57526 | 35900 ft | 417 kts | 222° |
| 2026-05-06 15:36 | -37.21683 | -59.61512 | 35923 ft | 416 kts | 223° |
| 2026-05-06 15:37 | -37.26230 | -59.65381 | 35897 ft | 416 kts | 223° |
| 2026-05-06 15:37 | -37.31022 | -59.69466 | 35885 ft | 416 kts | 223° |
| 2026-05-06 15:38 | -37.35817 | -59.73543 | 35880 ft | 416 kts | 223° |
| 2026-05-06 15:38 | -37.40607 | -59.77614 | 35898 ft | 415 kts | 223° |
| 2026-05-06 15:39 | -37.45392 | -59.81686 | 35892 ft | 415 kts | 223° |
| 2026-05-06 15:39 | -37.50172 | -59.85761 | 35880 ft | 416 kts | 223° |
| 2026-05-06 15:40 | -37.54927 | -59.89821 | 35903 ft | 416 kts | 223° |
| 2026-05-06 15:40 | -37.59731 | -59.93930 | 35903 ft | 418 kts | 223° |
| 2026-05-06 15:41 | -37.64558 | -59.98064 | 35900 ft | 420 kts | 223° |
| 2026-05-06 15:41 | -37.69409 | -60.02226 | 35891 ft | 422 kts | 223° |
| 2026-05-06 15:42 | -37.74281 | -60.06411 | 35874 ft | 425 kts | 223° |
| 2026-05-06 15:42 | -37.79185 | -60.10632 | 35884 ft | 428 kts | 223° |
| 2026-05-06 15:43 | -37.84095 | -60.14865 | 35877 ft | 431 kts | 223° |
| 2026-05-06 15:43 | -37.89068 | -60.19158 | 35886 ft | 434 kts | 222° |
| 2026-05-06 15:44 | -37.94075 | -60.23488 | 35888 ft | 437 kts | 222° |
| 2026-05-06 15:44 | -37.99105 | -60.27844 | 35897 ft | 439 kts | 222° |
| 2026-05-06 15:45 | -38.04162 | -60.32232 | 35896 ft | 441 kts | 223° |
| 2026-05-06 15:45 | -38.09231 | -60.36639 | 35891 ft | 442 kts | 223° |
| 2026-05-06 15:46 | -38.14314 | -60.41063 | 35882 ft | 443 kts | 223° |
| 2026-05-06 15:46 | -38.19419 | -60.45455 | 35889 ft | 443 kts | 222° |
| 2026-05-06 15:47 | -38.24563 | -60.49798 | 35890 ft | 444 kts | 222° |
| 2026-05-06 15:47 | -38.29703 | -60.54141 | 35907 ft | 443 kts | 223° |
| 2026-05-06 15:48 | -38.34792 | -60.58461 | 35892 ft | 442 kts | 223° |
| 2026-05-06 15:48 | -38.39897 | -60.62809 | 35886 ft | 441 kts | 223° |
| 2026-05-06 15:49 | -38.44994 | -60.67159 | 35889 ft | 440 kts | 223° |
| 2026-05-06 15:49 | -38.50076 | -60.71505 | 35890 ft | 439 kts | 223° |
| 2026-05-06 15:50 | -38.55150 | -60.75851 | 35929 ft | 439 kts | 224° |
| 2026-05-06 15:50 | -38.60235 | -60.80216 | 35886 ft | 441 kts | 224° |
| 2026-05-06 15:51 | -38.65317 | -60.84582 | 35887 ft | 440 kts | 224° |
| 2026-05-06 15:51 | -38.70388 | -60.88945 | 35893 ft | 438 kts | 224° |
| 2026-05-06 15:52 | -38.75446 | -60.93307 | 35876 ft | 438 kts | 224° |
| 2026-05-06 15:52 | -38.80492 | -60.97666 | 35887 ft | 437 kts | 224° |
| 2026-05-06 15:53 | -38.85526 | -61.02024 | 35871 ft | 438 kts | 224° |
| 2026-05-06 15:53 | -38.90538 | -61.06369 | 35886 ft | 437 kts | 224° |
| 2026-05-06 15:54 | -38.95579 | -61.10747 | 35874 ft | 437 kts | 224° |
| 2026-05-06 15:54 | -39.00620 | -61.15131 | 35873 ft | 437 kts | 224° |
| 2026-05-06 15:55 | -39.05669 | -61.19533 | 35860 ft | 438 kts | 224° |
| 2026-05-06 15:55 | -39.10721 | -61.23944 | 35851 ft | 440 kts | 225° |
| 2026-05-06 15:56 | -39.15784 | -61.28371 | 35855 ft | 440 kts | 225° |
| 2026-05-06 15:56 | -39.20854 | -61.32812 | 35853 ft | 440 kts | 225° |
| 2026-05-06 15:57 | -39.25921 | -61.37260 | 35833 ft | 441 kts | 224° |
| 2026-05-06 15:57 | -39.30960 | -61.41688 | 35836 ft | 440 kts | 224° |
| 2026-05-06 15:58 | -39.36028 | -61.46150 | 35871 ft | 439 kts | 224° |
| 2026-05-06 15:58 | -39.41081 | -61.50609 | 35846 ft | 439 kts | 224° |
| 2026-05-06 15:59 | -39.46120 | -61.55063 | 35834 ft | 438 kts | 224° |
| 2026-05-06 15:59 | -39.51145 | -61.59511 | 35822 ft | 437 kts | 224° |
| 2026-05-06 16:00 | -39.56150 | -61.63951 | 35846 ft | 436 kts | 225° |
| 2026-05-06 16:00 | -39.61122 | -61.68371 | 35825 ft | 436 kts | 225° |
| 2026-05-06 16:01 | -39.66121 | -61.72822 | 35845 ft | 435 kts | 225° |
| 2026-05-06 16:01 | -39.71111 | -61.77272 | 35836 ft | 435 kts | 225° |
| 2026-05-06 16:02 | -39.76103 | -61.81733 | 35838 ft | 435 kts | 225° |
| 2026-05-06 16:02 | -39.81094 | -61.86201 | 35847 ft | 436 kts | 225° |
| 2026-05-06 16:03 | -39.86097 | -61.90687 | 35841 ft | 436 kts | 225° |
| 2026-05-06 16:03 | -39.90881 | -61.95463 | 35854 ft | 432 kts | 229° |
| 2026-05-06 16:04 | -39.95496 | -62.00478 | 35860 ft | 432 kts | 229° |
| 2026-05-06 16:04 | -39.99598 | -62.04948 | 35861 ft | 433 kts | 229° |
| 2026-05-06 16:05 | -40.04262 | -62.09990 | 35846 ft | 434 kts | 229° |
| 2026-05-06 16:05 | -40.08925 | -62.15013 | 35856 ft | 434 kts | 229° |
| 2026-05-06 16:06 | -40.13585 | -62.20034 | 35855 ft | 434 kts | 229° |
| 2026-05-06 16:06 | -40.18259 | -62.25083 | 35866 ft | 436 kts | 228° |
| 2026-05-06 16:07 | -40.22944 | -62.30152 | 35865 ft | 437 kts | 228° |
| 2026-05-06 16:07 | -40.27630 | -62.35232 | 35870 ft | 437 kts | 228° |
| 2026-05-06 16:08 | -40.32322 | -62.40327 | 35856 ft | 438 kts | 228° |
| 2026-05-06 16:08 | -40.37023 | -62.45443 | 35868 ft | 438 kts | 228° |
| 2026-05-06 16:09 | -40.41716 | -62.50559 | 35886 ft | 439 kts | 228° |
| 2026-05-06 16:09 | -40.46386 | -62.55660 | 35860 ft | 440 kts | 228° |
| 2026-05-06 16:10 | -40.51092 | -62.60811 | 35870 ft | 440 kts | 228° |
| 2026-05-06 16:10 | -40.55798 | -62.65969 | 35870 ft | 440 kts | 228° |
| 2026-05-06 16:11 | -40.60505 | -62.71139 | 35875 ft | 440 kts | 229° |
| 2026-05-06 16:11 | -40.65204 | -62.76311 | 35850 ft | 441 kts | 229° |
| 2026-05-06 16:12 | -40.69903 | -62.81492 | 35888 ft | 440 kts | 229° |
| 2026-05-06 16:12 | -40.74615 | -62.86702 | 35928 ft | 446 kts | 229° |
| 2026-05-06 16:13 | -40.77011 | -62.89359 | 35779 ft | 451 kts | 228° |
| 2026-05-06 16:13 | -40.79408 | -62.92010 | 35833 ft | 449 kts | 228° |
| 2026-05-06 16:13 | -40.84183 | -62.97302 | 35810 ft | 452 kts | 228° |
| 2026-05-06 16:14 | -40.89089 | -63.02513 | 35819 ft | 453 kts | 224° |
| 2026-05-06 16:14 | -40.94277 | -63.07272 | 35814 ft | 453 kts | 222° |
| 2026-05-06 16:15 | -40.99483 | -63.11935 | 35827 ft | 451 kts | 222° |
| 2026-05-06 16:15 | -41.04648 | -63.16640 | 35815 ft | 450 kts | 223° |
| 2026-05-06 16:16 | -41.09824 | -63.21422 | 35826 ft | 457 kts | 223° |
| 2026-05-06 16:16 | -41.15029 | -63.26258 | 35838 ft | 462 kts | 223° |
| 2026-05-06 16:17 | -41.18483 | -63.29468 | 35836 ft | 463 kts | 223° |
| 2026-05-06 16:17 | -41.23770 | -63.34386 | 35842 ft | 465 kts | 223° |
| 2026-05-06 16:18 | -41.29072 | -63.39326 | 35854 ft | 464 kts | 223° |
| 2026-05-06 16:18 | -41.34349 | -63.44260 | 35874 ft | 463 kts | 223° |
| 2026-05-06 16:19 | -41.39620 | -63.49201 | 35842 ft | 462 kts | 222° |
| 2026-05-06 16:19 | -41.44867 | -63.54121 | 35827 ft | 460 kts | 222° |
| 2026-05-06 16:20 | -41.50081 | -63.59019 | 35843 ft | 458 kts | 222° |
| 2026-05-06 16:20 | -41.55272 | -63.63907 | 35836 ft | 456 kts | 222° |
| 2026-05-06 16:21 | -41.60447 | -63.68790 | 35835 ft | 454 kts | 223° |
| 2026-05-06 16:21 | -41.65564 | -63.73634 | 35832 ft | 454 kts | 223° |
| 2026-05-06 16:22 | -41.70722 | -63.78523 | 35847 ft | 454 kts | 221° |
| 2026-05-06 16:22 | -41.75041 | -63.82622 | 35859 ft | 454 kts | 221° |
| 2026-05-06 16:23 | -41.80205 | -63.87534 | 35839 ft | 455 kts | 221° |
| 2026-05-06 16:23 | -41.85333 | -63.92420 | 35848 ft | 456 kts | 221° |
| 2026-05-06 16:24 | -41.90511 | -63.97361 | 35843 ft | 457 kts | 221° |
| 2026-05-06 16:24 | -41.95697 | -64.02319 | 35831 ft | 458 kts | 222° |
| 2026-05-06 16:25 | -42.00876 | -64.07289 | 35846 ft | 458 kts | 221° |
| 2026-05-06 16:25 | -42.06054 | -64.12263 | 35851 ft | 456 kts | 221° |
| 2026-05-06 16:26 | -42.11216 | -64.17230 | 35837 ft | 455 kts | 221° |
| 2026-05-06 16:26 | -42.16351 | -64.22182 | 35843 ft | 453 kts | 221° |
| 2026-05-06 16:27 | -42.21468 | -64.27125 | 35848 ft | 451 kts | 221° |
| 2026-05-06 16:27 | -42.26534 | -64.32029 | 35839 ft | 449 kts | 221° |
| 2026-05-06 16:28 | -42.31606 | -64.36956 | 35841 ft | 448 kts | 221° |
| 2026-05-06 16:28 | -42.36655 | -64.41867 | 35826 ft | 447 kts | 221° |
| 2026-05-06 16:29 | -42.41690 | -64.46773 | 35826 ft | 445 kts | 221° |
| 2026-05-06 16:29 | -42.46702 | -64.51666 | 35851 ft | 444 kts | 222° |
| 2026-05-06 16:30 | -42.50864 | -64.55731 | 35845 ft | 442 kts | 221° |
| 2026-05-06 16:30 | -42.56657 | -64.61413 | 35831 ft | 442 kts | 222° |
| 2026-05-06 16:31 | -42.61645 | -64.66322 | 35831 ft | 444 kts | 221° |
| 2026-05-06 16:31 | -42.66658 | -64.71258 | 35845 ft | 445 kts | 221° |
| 2026-05-06 16:32 | -42.71685 | -64.76215 | 35857 ft | 447 kts | 221° |
| 2026-05-06 16:32 | -42.76729 | -64.81200 | 35845 ft | 449 kts | 222° |
| 2026-05-06 16:33 | -42.81786 | -64.86209 | 35832 ft | 450 kts | 222° |
| 2026-05-06 16:34 | -42.89405 | -64.93774 | 35830 ft | 453 kts | 222° |
| 2026-05-06 16:34 | -42.94498 | -64.98839 | 35838 ft | 453 kts | 221° |
| 2026-05-06 16:35 | -42.99589 | -65.03921 | 35860 ft | 453 kts | 222° |
| 2026-05-06 16:35 | -43.04673 | -65.09006 | 35857 ft | 451 kts | 222° |
| 2026-05-06 16:36 | -43.09733 | -65.14074 | 35865 ft | 450 kts | 222° |
| 2026-05-06 16:36 | -43.14733 | -65.19094 | 35845 ft | 448 kts | 222° |
| 2026-05-06 16:37 | -43.19736 | -65.24126 | 35877 ft | 445 kts | 221° |
| 2026-05-06 16:37 | -43.25023 | -65.28659 | 35892 ft | 448 kts | 215° |
| 2026-05-06 16:38 | -43.30478 | -65.32835 | 35866 ft | 448 kts | 215° |
| 2026-05-06 16:38 | -43.35920 | -65.37033 | 35855 ft | 448 kts | 215° |
| 2026-05-06 16:39 | -43.41328 | -65.41285 | 35858 ft | 447 kts | 216° |
| 2026-05-06 16:39 | -43.46723 | -65.45565 | 35852 ft | 448 kts | 216° |
| 2026-05-06 16:40 | -43.52120 | -65.49859 | 35862 ft | 448 kts | 216° |
| 2026-05-06 16:40 | -43.57533 | -65.54174 | 35866 ft | 450 kts | 216° |
| 2026-05-06 16:41 | -43.62927 | -65.58479 | 35851 ft | 451 kts | 216° |
| 2026-05-06 16:41 | -43.68370 | -65.62833 | 35840 ft | 453 kts | 216° |
| 2026-05-06 16:42 | -43.73815 | -65.67190 | 35842 ft | 452 kts | 216° |
| 2026-05-06 16:42 | -43.79247 | -65.71548 | 35858 ft | 451 kts | 216° |
| 2026-05-06 16:43 | -43.84672 | -65.75919 | 35843 ft | 450 kts | 216° |
| 2026-05-06 16:43 | -43.90068 | -65.80278 | 35864 ft | 449 kts | 216° |
| 2026-05-06 16:44 | -43.95469 | -65.84648 | 35871 ft | 448 kts | 216° |
| 2026-05-06 16:44 | -44.00812 | -65.88976 | 35852 ft | 447 kts | 216° |
| 2026-05-06 16:45 | -44.06175 | -65.93320 | 35861 ft | 446 kts | 216° |
| 2026-05-06 16:45 | -44.11532 | -65.97668 | 35864 ft | 445 kts | 216° |
| 2026-05-06 16:46 | -44.16874 | -66.02017 | 35861 ft | 445 kts | 216° |
| 2026-05-06 16:46 | -44.22218 | -66.06378 | 35861 ft | 445 kts | 216° |
| 2026-05-06 16:47 | -44.27569 | -66.10754 | 35865 ft | 446 kts | 216° |
| 2026-05-06 16:47 | -44.32932 | -66.15148 | 35844 ft | 447 kts | 216° |
| 2026-05-06 16:48 | -44.38247 | -66.19512 | 35872 ft | 446 kts | 216° |
| 2026-05-06 16:48 | -44.43593 | -66.23910 | 35874 ft | 445 kts | 216° |
| 2026-05-06 16:49 | -44.48944 | -66.28323 | 35869 ft | 446 kts | 216° |
| 2026-05-06 16:49 | -44.54299 | -66.32748 | 35871 ft | 447 kts | 216° |
| 2026-05-06 16:50 | -44.59657 | -66.37186 | 35895 ft | 448 kts | 216° |
| 2026-05-06 16:50 | -44.65025 | -66.41641 | 35869 ft | 448 kts | 216° |
| 2026-05-06 16:51 | -44.70340 | -66.46060 | 35887 ft | 446 kts | 216° |
| 2026-05-06 16:51 | -44.75663 | -66.50496 | 35870 ft | 444 kts | 216° |
| 2026-05-06 16:52 | -44.80965 | -66.54925 | 35881 ft | 442 kts | 216° |
| 2026-05-06 16:52 | -44.86246 | -66.59347 | 35891 ft | 440 kts | 216° |
| 2026-05-06 16:53 | -44.91511 | -66.63766 | 35892 ft | 439 kts | 216° |
| 2026-05-06 16:53 | -44.96762 | -66.68180 | 35895 ft | 439 kts | 217° |
| 2026-05-06 16:54 | -45.02001 | -66.72596 | 35878 ft | 439 kts | 217° |
| 2026-05-06 16:54 | -45.07210 | -66.76998 | 35898 ft | 438 kts | 217° |
| 2026-05-06 16:55 | -45.12446 | -66.81436 | 35896 ft | 439 kts | 217° |
| 2026-05-06 16:55 | -45.17708 | -66.85905 | 35904 ft | 442 kts | 217° |
| 2026-05-06 16:56 | -45.23002 | -66.90412 | 35888 ft | 445 kts | 217° |
| 2026-05-06 16:56 | -45.28309 | -66.94936 | 35904 ft | 445 kts | 217° |
| 2026-05-06 16:57 | -45.33611 | -66.99466 | 35933 ft | 444 kts | 217° |
| 2026-05-06 16:57 | -45.38915 | -67.04010 | 35911 ft | 445 kts | 217° |
| 2026-05-06 16:58 | -45.44210 | -67.08555 | 35903 ft | 444 kts | 217° |
| 2026-05-06 16:58 | -45.49455 | -67.13067 | 35911 ft | 443 kts | 217° |
| 2026-05-06 16:59 | -45.54726 | -67.17613 | 35912 ft | 441 kts | 217° |
| 2026-05-06 16:59 | -45.59976 | -67.22151 | 35913 ft | 441 kts | 217° |
| 2026-05-06 17:00 | -45.65221 | -67.26695 | 35914 ft | 440 kts | 217° |
| 2026-05-06 17:00 | -45.70453 | -67.31238 | 35948 ft | 440 kts | 217° |
| 2026-05-06 17:01 | -45.75677 | -67.35782 | 35972 ft | 439 kts | 218° |
| 2026-05-06 17:01 | -45.80849 | -67.40418 | 35966 ft | 437 kts | 219° |
| 2026-05-06 17:02 | -45.85891 | -67.45187 | 35973 ft | 437 kts | 220° |
| 2026-05-06 17:02 | -45.90960 | -67.50012 | 35959 ft | 437 kts | 220° |
| 2026-05-06 17:03 | -45.96040 | -67.54831 | 35912 ft | 438 kts | 220° |
| 2026-05-06 17:03 | -46.01131 | -67.59653 | 35923 ft | 438 kts | 220° |
| 2026-05-06 17:04 | -46.06226 | -67.64485 | 35925 ft | 439 kts | 220° |
| 2026-05-06 17:04 | -46.11326 | -67.69331 | 35921 ft | 440 kts | 220° |
| 2026-05-06 17:05 | -46.16434 | -67.74197 | 35917 ft | 440 kts | 220° |
| 2026-05-06 17:05 | -46.21549 | -67.79081 | 35921 ft | 440 kts | 220° |
| 2026-05-06 17:06 | -46.26661 | -67.83972 | 35934 ft | 441 kts | 220° |
| 2026-05-06 17:06 | -46.31780 | -67.88882 | 35935 ft | 441 kts | 220° |
| 2026-05-06 17:07 | -46.36901 | -67.93806 | 35931 ft | 442 kts | 220° |
| 2026-05-06 17:07 | -46.41991 | -67.98710 | 35914 ft | 443 kts | 220° |
| 2026-05-06 17:08 | -46.47122 | -68.03664 | 35922 ft | 442 kts | 220° |
| 2026-05-06 17:08 | -46.52250 | -68.08628 | 35940 ft | 442 kts | 220° |
| 2026-05-06 17:09 | -46.57336 | -68.13561 | 35929 ft | 442 kts | 220° |
| 2026-05-06 17:09 | -46.62477 | -68.18560 | 35936 ft | 440 kts | 220° |
| 2026-05-06 17:10 | -46.67533 | -68.23487 | 35928 ft | 439 kts | 221° |
| 2026-05-06 17:10 | -46.72590 | -68.28427 | 35928 ft | 437 kts | 221° |
| 2026-05-06 17:11 | -46.76784 | -68.32533 | 35926 ft | 436 kts | 221° |
| 2026-05-06 17:11 | -46.81809 | -68.37463 | 35919 ft | 435 kts | 221° |
| 2026-05-06 17:12 | -46.86820 | -68.42390 | 35942 ft | 433 kts | 221° |
| 2026-05-06 17:12 | -46.91823 | -68.47322 | 35942 ft | 432 kts | 221° |
| 2026-05-06 17:13 | -46.96810 | -68.52249 | 35922 ft | 432 kts | 221° |
| 2026-05-06 17:13 | -47.01766 | -68.57155 | 35935 ft | 432 kts | 221° |
| 2026-05-06 17:14 | -47.06751 | -68.62104 | 35944 ft | 433 kts | 221° |
| 2026-05-06 17:14 | -47.11754 | -68.67081 | 35929 ft | 434 kts | 221° |
| 2026-05-06 17:15 | -47.16763 | -68.72075 | 35926 ft | 435 kts | 221° |
| 2026-05-06 17:15 | -47.21781 | -68.77088 | 35926 ft | 436 kts | 221° |
| 2026-05-06 17:16 | -47.26766 | -68.82080 | 35936 ft | 436 kts | 221° |
| 2026-05-06 17:16 | -47.31797 | -68.87132 | 35913 ft | 438 kts | 221° |
| 2026-05-06 17:17 | -47.36835 | -68.92201 | 35915 ft | 439 kts | 222° |
| 2026-05-06 17:17 | -47.41879 | -68.97288 | 35926 ft | 439 kts | 222° |
| 2026-05-06 17:18 | -47.46919 | -69.02382 | 35911 ft | 438 kts | 222° |
| 2026-05-06 17:18 | -47.51943 | -69.07472 | 35920 ft | 437 kts | 222° |
| 2026-05-06 17:19 | -47.56951 | -69.12559 | 35913 ft | 436 kts | 222° |
| 2026-05-06 17:19 | -47.61951 | -69.17650 | 35933 ft | 435 kts | 222° |
| 2026-05-06 17:20 | -47.66939 | -69.22741 | 35921 ft | 434 kts | 222° |
| 2026-05-06 17:20 | -47.71907 | -69.27824 | 35903 ft | 434 kts | 222° |
| 2026-05-06 17:21 | -47.76835 | -69.32876 | 35925 ft | 432 kts | 222° |
| 2026-05-06 17:21 | -47.81793 | -69.37973 | 35924 ft | 433 kts | 222° |
| 2026-05-06 17:22 | -47.86738 | -69.43068 | 35917 ft | 432 kts | 222° |
| 2026-05-06 17:22 | -47.91685 | -69.48178 | 35919 ft | 433 kts | 222° |
| 2026-05-06 17:23 | -47.96627 | -69.53294 | 35930 ft | 433 kts | 222° |
| 2026-05-06 17:23 | -48.01574 | -69.58428 | 35933 ft | 433 kts | 223° |
| 2026-05-06 17:24 | -48.06522 | -69.63574 | 35929 ft | 434 kts | 222° |
| 2026-05-06 17:24 | -48.11481 | -69.68746 | 35932 ft | 435 kts | 222° |
| 2026-05-06 17:25 | -48.16446 | -69.73934 | 35952 ft | 435 kts | 222° |
| 2026-05-06 17:25 | -48.21418 | -69.79143 | 35928 ft | 436 kts | 222° |
| 2026-05-06 17:26 | -48.26393 | -69.84367 | 35918 ft | 437 kts | 222° |
| 2026-05-06 17:26 | -48.31337 | -69.89572 | 35949 ft | 437 kts | 222° |
| 2026-05-06 17:27 | -48.36318 | -69.94829 | 35940 ft | 437 kts | 222° |
| 2026-05-06 17:27 | -48.41291 | -70.00089 | 35928 ft | 437 kts | 222° |
| 2026-05-06 17:28 | -48.46257 | -70.05346 | 35933 ft | 437 kts | 222° |
| 2026-05-06 17:28 | -48.51252 | -70.10575 | 35933 ft | 437 kts | 222° |
| 2026-05-06 17:29 | -48.56246 | -70.15806 | 35887 ft | 438 kts | 221° |
| 2026-05-06 17:29 | -48.58766 | -70.18457 | 35231 ft | 445 kts | 222° |
| 2026-05-06 17:29 | -48.61299 | -70.21124 | 34768 ft | 441 kts | 222° |
| 2026-05-06 17:29 | -48.63818 | -70.23777 | 34069 ft | 444 kts | 223° |
| 2026-05-06 17:30 | -48.66365 | -70.26468 | 33410 ft | 445 kts | 223° |
| 2026-05-06 17:30 | -48.68901 | -70.29148 | 32717 ft | 445 kts | 223° |
| 2026-05-06 17:30 | -48.71445 | -70.31840 | 32126 ft | 444 kts | 223° |
| 2026-05-06 17:30 | -48.73953 | -70.34491 | 31736 ft | 438 kts | 223° |
| 2026-05-06 17:31 | -48.76446 | -70.37137 | 31220 ft | 435 kts | 223° |
| 2026-05-06 17:31 | -48.78910 | -70.39751 | 30763 ft | 431 kts | 223° |
| 2026-05-06 17:31 | -48.81358 | -70.42359 | 30370 ft | 428 kts | 223° |
| 2026-05-06 17:31 | -48.83759 | -70.44915 | 29782 ft | 427 kts | 223° |
| 2026-05-06 17:32 | -48.86178 | -70.47496 | 29425 ft | 420 kts | 223° |
| 2026-05-06 17:32 | -48.88561 | -70.50039 | 28822 ft | 418 kts | 223° |
| 2026-05-06 17:32 | -48.90917 | -70.52557 | 28489 ft | 410 kts | 223° |
| 2026-05-06 17:32 | -48.93249 | -70.55055 | 27949 ft | 408 kts | 223° |
| 2026-05-06 17:33 | -48.95552 | -70.57523 | 27564 ft | 403 kts | 223° |
| 2026-05-06 17:33 | -48.97834 | -70.59975 | 27090 ft | 400 kts | 223° |
| 2026-05-06 17:33 | -49.00093 | -70.62403 | 26669 ft | 396 kts | 222° |
| 2026-05-06 17:33 | -49.02335 | -70.64818 | 26228 ft | 393 kts | 222° |
| 2026-05-06 17:34 | -49.04558 | -70.67214 | 25798 ft | 390 kts | 222° |
| 2026-05-06 17:34 | -49.06767 | -70.69597 | 25372 ft | 388 kts | 222° |
| 2026-05-06 17:34 | -49.08965 | -70.71971 | 24963 ft | 385 kts | 222° |
| 2026-05-06 17:34 | -49.11142 | -70.74325 | 24541 ft | 383 kts | 221° |
| 2026-05-06 17:35 | -49.13307 | -70.76667 | 24123 ft | 380 kts | 221° |
| 2026-05-06 17:35 | -49.15460 | -70.78999 | 23712 ft | 378 kts | 221° |
| 2026-05-06 17:35 | -49.17603 | -70.81321 | 23251 ft | 376 kts | 221° |
| 2026-05-06 17:36 | -49.21803 | -70.85874 | 22413 ft | 363 kts | 221° |
| 2026-05-06 17:36 | -49.23856 | -70.88104 | 21997 ft | 358 kts | 221° |
| 2026-05-06 17:36 | -49.25873 | -70.90300 | 21609 ft | 356 kts | 221° |
| 2026-05-06 17:36 | -49.27915 | -70.92533 | 21192 ft | 368 kts | 221° |
| 2026-05-06 17:37 | -49.30029 | -70.94853 | 20799 ft | 379 kts | 221° |
| 2026-05-06 17:37 | -49.32172 | -70.97196 | 20329 ft | 375 kts | 221° |
| 2026-05-06 17:37 | -49.34274 | -70.99487 | 19947 ft | 367 kts | 221° |
| 2026-05-06 17:37 | -49.36332 | -71.01730 | 19527 ft | 360 kts | 221° |
| 2026-05-06 17:38 | -49.38349 | -71.03936 | 19107 ft | 353 kts | 221° |
| 2026-05-06 17:38 | -49.40333 | -71.06110 | 18723 ft | 347 kts | 221° |
| 2026-05-06 17:38 | -49.42289 | -71.08258 | 18338 ft | 344 kts | 221° |
| 2026-05-06 17:38 | -49.44232 | -71.10396 | 17918 ft | 342 kts | 221° |
| 2026-05-06 17:39 | -49.46177 | -71.12542 | 17508 ft | 350 kts | 221° |
| 2026-05-06 17:39 | -49.48181 | -71.14758 | 17119 ft | 359 kts | 221° |
| 2026-05-06 17:39 | -49.50209 | -71.16994 | 16672 ft | 356 kts | 220° |
| 2026-05-06 17:39 | -49.52198 | -71.19183 | 16318 ft | 347 kts | 220° |
| 2026-05-06 17:40 | -49.54141 | -71.21325 | 15895 ft | 340 kts | 220° |
| 2026-05-06 17:40 | -49.56047 | -71.23431 | 15511 ft | 334 kts | 220° |
| 2026-05-06 17:40 | -49.57919 | -71.25503 | 15140 ft | 330 kts | 220° |
| 2026-05-06 17:40 | -49.59778 | -71.27565 | 14776 ft | 329 kts | 220° |
| 2026-05-06 17:41 | -49.61649 | -71.29617 | 14400 ft | 335 kts | 218° |
| 2026-05-06 17:41 | -49.63688 | -71.31421 | 13980 ft | 347 kts | 211° |
| 2026-05-06 17:41 | -49.65859 | -71.33064 | 13589 ft | 346 kts | 209° |
| 2026-05-06 17:41 | -49.68019 | -71.34640 | 13116 ft | 340 kts | 208° |
| 2026-05-06 17:42 | -49.70132 | -71.36196 | 12722 ft | 332 kts | 209° |
| 2026-05-06 17:42 | -49.72187 | -71.37734 | 12354 ft | 325 kts | 209° |
| 2026-05-06 17:42 | -49.74197 | -71.39261 | 11953 ft | 319 kts | 209° |
| 2026-05-06 17:42 | -49.76164 | -71.40771 | 11621 ft | 312 kts | 209° |
| 2026-05-06 17:43 | -49.78102 | -71.42268 | 11242 ft | 311 kts | 209° |
| 2026-05-06 17:43 | -49.80036 | -71.43767 | 10882 ft | 312 kts | 209° |
| 2026-05-06 17:43 | -49.81999 | -71.45292 | 10545 ft | 318 kts | 208° |
| 2026-05-06 17:43 | -49.83962 | -71.46817 | 10442 ft | 310 kts | 208° |
| 2026-05-06 17:44 | -49.85846 | -71.48279 | 10283 ft | 297 kts | 208° |
| 2026-05-06 17:44 | -49.87676 | -71.49703 | 10063 ft | 292 kts | 208° |
| 2026-05-06 17:44 | -49.89485 | -71.51113 | 9813 ft | 290 kts | 208° |
| 2026-05-06 17:44 | -49.91292 | -71.52520 | 9530 ft | 291 kts | 208° |
| 2026-05-06 17:45 | -49.93121 | -71.53949 | 9060 ft | 297 kts | 208° |
| 2026-05-06 17:45 | -49.94952 | -71.55380 | 8864 ft | 291 kts | 208° |
| 2026-05-06 17:45 | -49.96755 | -71.56789 | 8564 ft | 290 kts | 208° |
| 2026-05-06 17:45 | -49.98546 | -71.58190 | 8307 ft | 286 kts | 208° |
| 2026-05-06 17:46 | -50.00294 | -71.59557 | 8036 ft | 277 kts | 208° |
| 2026-05-06 17:46 | -50.01997 | -71.60891 | 7765 ft | 270 kts | 208° |
| 2026-05-06 17:46 | -50.03655 | -71.62191 | 7499 ft | 264 kts | 208° |
| 2026-05-06 17:46 | -50.05252 | -71.63429 | 7257 ft | 255 kts | 208° |
| 2026-05-06 17:47 | -50.06800 | -71.64639 | 7006 ft | 243 kts | 208° |
| 2026-05-06 17:47 | -50.08271 | -71.65793 | 6774 ft | 233 kts | 208° |
| 2026-05-06 17:47 | -50.09702 | -71.66922 | 6538 ft | 229 kts | 208° |
| 2026-05-06 17:47 | -50.11125 | -71.68047 | 6272 ft | 230 kts | 208° |
| 2026-05-06 17:48 | -50.12547 | -71.69170 | 6008 ft | 228 kts | 208° |
| 2026-05-06 17:48 | -50.13957 | -71.70281 | 5738 ft | 224 kts | 208° |
| 2026-05-06 17:48 | -50.15312 | -71.71348 | 5452 ft | 213 kts | 208° |
| 2026-05-06 17:48 | -50.16599 | -71.72360 | 5178 ft | 202 kts | 206° |
| 2026-05-06 17:49 | -50.17918 | -71.72998 | 4877 ft | 195 kts | 194° |
| 2026-05-06 17:49 | -50.19192 | -71.73470 | 4689 ft | 184 kts | 195° |
| 2026-05-06 17:49 | -50.20415 | -71.73964 | 4408 ft | 179 kts | 197° |
| 2026-05-06 17:49 | -50.21617 | -71.74471 | 4189 ft | 179 kts | 197° |
| 2026-05-06 17:50 | -50.22824 | -71.74975 | 3950 ft | 181 kts | 197° |
| 2026-05-06 17:50 | -50.24046 | -71.75480 | 3698 ft | 182 kts | 197° |
| 2026-05-06 17:50 | -50.25254 | -71.75998 | 3441 ft | 177 kts | 202° |
| 2026-05-06 17:50 | -50.26156 | -71.77194 | 3119 ft | 175 kts | 248° |
| 2026-05-06 17:51 | -50.26338 | -71.79090 | 3039 ft | 180 kts | 262° |
| 2026-05-06 17:51 | -50.26518 | -71.81045 | 2923 ft | 181 kts | 259° |
| 2026-05-06 17:51 | -50.26696 | -71.82942 | 2929 ft | 175 kts | 262° |
| 2026-05-06 17:51 | -50.26818 | -71.84735 | 2886 ft | 159 kts | 263° |
| 2026-05-06 17:52 | -50.26916 | -71.86381 | 2826 ft | 147 kts | 264° |
| 2026-05-06 17:52 | -50.27007 | -71.87955 | 2668 ft | 144 kts | 264° |
| 2026-05-06 17:52 | -50.27097 | -71.89507 | 2476 ft | 143 kts | 264° |
| 2026-05-06 17:52 | -50.27187 | -71.91059 | 2266 ft | 143 kts | 264° |
| 2026-05-06 17:53 | -50.27277 | -71.92614 | 2086 ft | 145 kts | 265° |
| 2026-05-06 17:53 | -50.27367 | -71.94165 | 1884 ft | 141 kts | 265° |
| 2026-05-06 17:53 | -50.27457 | -71.95693 | 1676 ft | 141 kts | 265° |
| 2026-05-06 17:53 | -50.27546 | -71.97212 | 1508 ft | 140 kts | 265° |
| 2026-05-06 17:54 | -50.27636 | -71.98749 | 1269 ft | 141 kts | 265° |
| 2026-05-06 17:54 | -50.27728 | -72.00267 | 1056 ft | 140 kts | 262° |
| 2026-05-06 17:54 | -50.27814 | -72.01783 | 897 ft | 142 kts | 265° |
| 2026-05-06 17:54 | -50.27902 | -72.03338 | 686 ft | 141 kts | 264° |
| 2026-05-06 17:55 | -50.27990 | -72.04814 | 644 ft | 132 kts | 262° |
| 2026-05-06 17:55 | -50.28055 | -72.05925 | 643 ft | 49 kts | 265° |
| 2026-05-06 17:55 | -50.28132 | -72.06259 | 642 ft | 26 kts | 233° |
| 2026-05-06 17:55 | -50.28224 | -72.06400 | 641 ft | 18 kts | 194° |
| 2026-05-06 17:56 | -50.28311 | -72.06297 | 640 ft | 18 kts | 91° |
| 2026-05-06 17:56 | -50.28301 | -72.06108 | 640 ft | 17 kts | 88° |
| 2026-05-06 17:56 | -50.28294 | -72.05994 | 640 ft | 10 kts | 85° |
| 2026-05-06 17:56 | -50.28289 | -72.05890 | 640 ft | 9 kts | 85° |
| 2026-05-06 17:57 | -50.28283 | -72.05790 | 641 ft | 9 kts | 82° |
| 2026-05-06 17:57 | -50.28277 | -72.05694 | 640 ft | 9 kts | 84° |
| 2026-05-06 17:57 | -50.28272 | -72.05602 | 640 ft | 8 kts | 85° |
| 2026-05-06 17:57 | -50.28265 | -72.05512 | 640 ft | 8 kts | 81° |
| 2026-05-06 17:58 | -50.28284 | -72.05444 | 640 ft | 7 kts | 169° |
| 2026-05-06 17:58 | -50.28305 | -72.05458 | 640 ft | 3 kts | 207° |
| 2026-05-06 17:58 | -50.28319 | -72.05459 | 640 ft | 0 kts | 180° |
| 2026-05-06 17:58 | -50.28327 | -72.05459 | 640 ft | 2 kts | 178° |
| 2026-05-06 17:59 | -50.28330 | -72.05458 | 640 ft | 0 kts | 176° |
| 2026-05-06 18:01 | -50.28310 | -72.04751 | 640 ft | 0 kts | 263° |